Time;durP1;ratioP1;P1;durP2;ratioP2;P2;SDS_P1;SDS_P2;PMS_P1;PMS_P2;Temp;Humidity;BMP_temperature;BMP_pressure;BME280_temperature;BME280_humidity;BME280_pressure;Samples;Min_cycle;Max_cycle;Signal;HPM_P1;HPM_P2
2023/01/05 00:01:24;;;;;;;15.02;3.90;;;;;;;8.51;100.00;101061.09;5013217;28;20030;-79
2023/01/05 00:03:51;;;;;;;12.48;2.80;;;;;;;8.48;100.00;101063.66;5009676;28;23477;-79
2023/01/05 00:06:19;;;;;;;15.50;3.50;;;;;;;8.47;100.00;101081.19;5008852;28;20046;-79
2023/01/05 00:08:47;;;;;;;17.65;3.97;;;;;;;8.46;100.00;101071.50;4987627;28;20062;-79
2023/01/05 00:22:37;;;;;;;30.42;4.65;;;;;;;8.38;100.00;101055.59;5005411;28;20046;-79
2023/01/05 00:25:17;;;;;;;21.63;4.50;;;;;;;8.38;100.00;101057.38;5007310;28;20049;-80
2023/01/05 00:27:49;;;;;;;24.77;4.82;;;;;;;8.39;100.00;101064.34;5006856;28;20053;-79
2023/01/05 00:30:31;;;;;;;25.13;4.28;;;;;;;8.38;100.00;101075.75;4991093;28;20041;-79
2023/01/05 00:32:58;;;;;;;20.42;3.78;;;;;;;8.38;100.00;101071.38;5007364;28;20411;-79
2023/01/05 00:35:27;;;;;;;15.82;3.63;;;;;;;8.39;100.00;101072.25;4987846;28;20045;-79
2023/01/05 00:37:54;;;;;;;20.73;4.10;;;;;;;8.38;100.00;101068.75;4989866;28;20470;-79
2023/01/05 00:40:22;;;;;;;27.17;3.90;;;;;;;8.39;100.00;101072.25;4989618;28;20042;-79
2023/01/05 00:42:49;;;;;;;23.17;3.50;;;;;;;8.38;100.00;101066.13;4997454;28;20051;-79
2023/01/05 00:45:18;;;;;;;28.45;4.28;;;;;;;8.40;100.00;101079.28;4984059;28;20046;-79
2023/01/05 00:47:47;;;;;;;17.73;3.33;;;;;;;8.41;100.00;101067.91;5009645;28;20046;-79
2023/01/05 00:50:17;;;;;;;24.80;3.97;;;;;;;8.41;100.00;101078.41;4987839;28;20309;-78
2023/01/05 00:52:45;;;;;;;28.15;3.97;;;;;;;8.41;100.00;101078.41;5011236;28;20087;-78
2023/01/05 00:55:13;;;;;;;18.55;3.95;;;;;;;8.40;100.00;101064.38;5013340;28;20044;-78
2023/01/05 00:57:41;;;;;;;15.40;3.83;;;;;;;8.39;100.00;101083.66;5008009;28;20054;-78
2023/01/05 01:00:14;;;;;;;21.25;3.83;;;;;;;8.39;100.00;101088.00;4959194;28;20046;-78
2023/01/05 01:02:41;;;;;;;18.05;4.18;;;;;;;8.39;100.00;101088.00;5008538;28;20084;-78
2023/01/05 01:05:09;;;;;;;27.40;4.35;;;;;;;8.37;100.00;101092.34;5009049;28;20046;-78
2023/01/05 01:07:37;;;;;;;17.42;3.38;;;;;;;8.35;100.00;101092.31;5001998;28;20049;-78
2023/01/05 01:10:05;;;;;;;22.23;4.15;;;;;;;8.33;100.00;101080.03;5008046;28;20041;-79
2023/01/05 01:12:33;;;;;;;25.75;3.75;;;;;;;8.32;100.00;101096.66;4994630;28;20046;-78
2023/01/05 01:15:01;;;;;;;24.13;4.22;;;;;;;8.30;100.00;101104.50;5022473;28;20057;-79
2023/01/05 01:17:31;;;;;;;22.70;3.88;;;;;;;8.29;100.00;101093.97;4988415;28;20046;-78
2023/01/05 01:19:58;;;;;;;26.90;4.55;;;;;;;8.28;100.00;101100.06;4999909;28;20057;-79
2023/01/05 01:22:25;;;;;;;19.77;4.25;;;;;;;8.28;100.00;101100.06;4999376;28;20054;-78
2023/01/05 01:24:53;;;;;;;18.33;3.70;;;;;;;8.28;100.00;101111.47;5009470;28;20652;-79
2023/01/05 01:27:20;;;;;;;27.98;4.40;;;;;;;8.27;100.00;101108.81;5009276;28;20391;-78
2023/01/05 01:29:48;;;;;;;20.45;3.97;;;;;;;8.28;100.00;101113.19;4972298;28;20396;-79
2023/01/05 01:32:15;;;;;;;20.00;4.78;;;;;;;8.29;100.00;101125.47;4974198;28;20454;-78
2023/01/05 01:34:43;;;;;;;23.65;4.68;;;;;;;8.30;100.00;101120.25;5008799;28;20725;-79
2023/01/05 01:37:12;;;;;;;24.42;3.92;;;;;;;8.32;100.00;101126.41;4993434;28;20045;-79
2023/01/05 01:39:44;;;;;;;24.30;4.07;;;;;;;8.32;100.00;101118.53;5000998;28;20057;-79
2023/01/05 01:42:15;;;;;;;17.17;3.45;;;;;;;8.32;100.00;101136.03;5010066;28;20049;-79
2023/01/05 01:45:36;;;;;;;34.03;5.07;;;;;;;8.33;100.00;101140.41;5006881;28;20823;-78
2023/01/05 01:48:04;;;;;;;26.17;5.20;;;;;;;8.36;100.00;101151.00;4973880;28;20045;-78
2023/01/05 01:50:40;;;;;;;18.35;3.22;;;;;;;8.35;100.00;101149.19;5008277;28;20041;-78
2023/01/05 01:53:13;;;;;;;23.95;3.97;;;;;;;8.36;100.00;101149.25;5009551;28;20057;-79
2023/01/05 01:55:41;;;;;;;24.60;5.13;;;;;;;8.37;100.00;101152.75;4998043;28;20046;-78
2023/01/05 01:58:15;;;;;;;26.15;4.28;;;;;;;8.37;100.00;101152.75;5001935;28;20579;-78
2023/01/05 02:00:45;;;;;;;15.52;3.15;;;;;;;8.37;100.00;101153.66;4988311;28;20403;-79
2023/01/05 02:03:13;;;;;;;21.60;3.83;;;;;;;8.39;100.00;101156.28;4987074;28;20049;-78
2023/01/05 02:05:41;;;;;;;27.02;5.05;;;;;;;8.42;100.00;101152.88;5008301;28;20611;-79
2023/01/05 02:08:11;;;;;;;24.25;4.15;;;;;;;8.43;100.00;101159.88;5001198;28;20050;-78
2023/01/05 02:11:11;;;;;;;18.92;4.20;;;;;;;8.46;100.00;101163.44;4998628;28;20388;-79
2023/01/05 02:13:44;;;;;;;20.67;4.00;;;;;;;8.45;100.00;101161.69;4995297;28;20101;-78
2023/01/05 02:16:34;;;;;;;25.15;4.13;;;;;;;8.46;100.00;101160.81;5009863;28;20062;-78
2023/01/05 02:19:21;;;;;;;14.03;2.47;;;;;;;8.46;100.00;101146.81;4978393;28;20435;-78
2023/01/05 02:22:22;;;;;;;23.58;4.07;;;;;;;8.45;100.00;101156.44;5009102;28;20377;-79
2023/01/05 02:24:52;;;;;;;;;;;;;;;8.45;100.00;101164.31;4987080;28;20060;-78
2023/01/05 02:27:37;;;;;;;15.98;3.85;;;;;;;8.44;100.00;101154.66;5008532;28;19932;-78
2023/01/05 02:30:26;;;;;;;19.35;3.50;;;;;;;8.46;100.00;101166.06;5009089;28;20050;-78
2023/01/05 02:33:21;;;;;;;24.23;4.10;;;;;;;8.47;100.00;101165.22;4974072;28;20354;-78
2023/01/05 02:36:12;;;;;;;24.52;3.67;;;;;;;8.47;100.00;101162.59;5001420;28;20049;-78
2023/01/05 02:38:45;;;;;;;21.20;3.78;;;;;;;8.48;100.00;101169.59;4993673;28;20054;-78
2023/01/05 02:41:33;;;;;;;21.60;3.88;;;;;;;8.50;100.00;101173.13;4999846;28;20056;-78
2023/01/05 02:44:02;;;;;;;22.40;5.20;;;;;;;8.52;100.00;101163.53;4998769;28;20710;-78
2023/01/05 02:46:30;;;;;;;19.42;3.90;;;;;;;8.53;100.00;101181.06;5003849;28;20049;-78
2023/01/05 02:48:59;;;;;;;21.63;4.78;;;;;;;8.54;100.00;101174.97;4973238;28;20045;-78
2023/01/05 02:51:35;;;;;;;22.10;5.05;;;;;;;8.54;100.00;101180.22;4987825;28;20113;-78
2023/01/05 02:54:37;;;;;;;16.98;4.22;;;;;;;8.53;100.00;101181.06;5013308;28;20054;-78
2023/01/05 02:57:16;;;;;;;21.48;5.78;;;;;;;8.52;100.00;101179.28;4975827;28;20061;-78
2023/01/05 02:59:52;;;;;;;15.15;3.42;;;;;;;8.50;100.00;101181.00;5007459;28;20180;-78
2023/01/05 03:02:30;;;;;;;19.20;3.67;;;;;;;8.48;100.00;101182.72;5009215;28;20060;-78
2023/01/05 03:05:09;;;;;;;21.60;3.65;;;;;;;8.48;100.00;101187.09;4973672;28;20049;-78
2023/01/05 03:07:39;;;;;;;25.30;3.90;;;;;;;8.49;100.00;101192.41;5005046;28;20053;-78
2023/01/05 03:16:00;;;;;;;25.25;4.90;;;;;;;8.45;100.00;101203.72;4990618;28;20061;-78
2023/01/05 03:18:36;;;;;;;23.80;3.42;;;;;;;8.46;100.00;101202.84;4984866;28;20050;-78
2023/01/05 03:21:22;;;;;;;25.55;4.50;;;;;;;8.45;100.00;101203.72;4961836;28;20074;-78
2023/01/05 03:35:30;;;;;;;19.10;3.42;;;;;;;8.47;100.00;101207.25;5023221;28;20050;-79
2023/01/05 03:38:08;;;;;;;22.77;4.43;;;;;;;8.47;100.00;101202.00;4986864;28;20064;-79
2023/01/05 03:40:45;;;;;;;25.88;4.47;;;;;;;8.48;100.00;101218.63;5005676;28;20061;-79
2023/01/05 03:43:13;;;;;;;27.02;4.60;;;;;;;8.49;100.00;101229.16;4983026;28;20411;-79
2023/01/05 03:45:45;;;;;;;20.73;4.32;;;;;;;8.49;100.00;101228.28;4989400;28;20053;-78
2023/01/05 03:48:20;;;;;;;14.10;3.72;;;;;;;8.49;100.00;101242.28;5007830;28;20057;-78
2023/01/05 03:50:48;;;;;;;24.23;4.03;;;;;;;8.49;100.00;101239.66;5007588;28;20507;-78
2023/01/05 03:53:18;;;;;;;24.13;5.10;;;;;;;8.51;100.00;101243.22;4973418;28;20583;-79
2023/01/05 03:55:46;;;;;;;23.02;4.57;;;;;;;8.50;100.00;101241.41;4992602;28;20500;-78
2023/01/05 03:58:13;;;;;;;20.48;4.22;;;;;;;8.51;100.00;101253.72;4967657;28;20042;-78
2023/01/05 04:00:45;;;;;;;28.20;4.63;;;;;;;8.52;100.00;101257.22;4991329;28;20411;-78
2023/01/05 04:03:15;;;;;;;22.92;4.43;;;;;;;8.54;100.00;101247.63;5008302;28;20072;-78
2023/01/05 04:05:43;;;;;;;22.08;4.28;;;;;;;8.53;100.00;101254.63;4998737;28;20042;-78
2023/01/05 04:08:11;;;;;;;23.52;4.38;;;;;;;8.52;100.00;101252.84;4971268;28;20407;-78
2023/01/05 04:10:39;;;;;;;20.17;4.13;;;;;;;8.54;100.00;101259.03;5002608;28;20046;-78
2023/01/05 04:13:07;;;;;;;29.10;4.68;;;;;;;8.55;100.00;101265.16;5012878;28;20436;-78
2023/01/05 04:15:35;;;;;;;20.65;3.97;;;;;;;8.55;100.00;101263.41;5005152;28;20054;-78
2023/01/05 04:18:05;;;;;;;22.75;4.00;;;;;;;8.58;100.00;101265.19;5016488;28;20388;-78
2023/01/05 04:20:32;;;;;;;23.52;4.45;;;;;;;8.58;100.00;101281.88;5011940;28;20050;-78
2023/01/05 04:23:00;;;;;;;19.88;5.18;;;;;;;8.60;100.00;101266.13;4977697;28;20038;-79
2023/01/05 04:25:29;;;;;;;26.08;5.07;;;;;;;8.59;100.00;101277.50;5025373;28;20046;-79
2023/01/05 04:28:09;;;;;;;23.08;4.05;;;;;;;8.58;100.00;101279.25;5009244;28;20041;-79
2023/01/05 04:30:37;;;;;;;17.85;3.42;;;;;;;8.57;100.00;101277.47;5002306;28;20049;-79
2023/01/05 04:33:05;;;;;;;29.25;4.97;;;;;;;8.58;100.00;101286.22;5013427;28;20523;-80
2023/01/05 04:35:33;;;;;;;28.08;4.90;;;;;;;8.57;100.00;101274.84;5009229;28;20507;-79
2023/01/05 04:38:00;;;;;;;24.45;5.07;;;;;;;8.55;100.00;101287.06;4985468;28;20423;-80
2023/01/05 04:40:27;;;;;;;29.13;5.45;;;;;;;8.53;100.00;101291.41;4963810;28;20061;-80
2023/01/05 04:42:55;;;;;;;23.90;4.95;;;;;;;8.49;100.00;101292.19;5012371;28;20045;-80
2023/01/05 04:45:24;;;;;;;24.80;3.67;;;;;;;8.46;100.00;101288.63;4984382;28;20072;-79
2023/01/05 04:47:51;;;;;;;21.70;4.72;;;;;;;8.45;100.00;101300.88;5025637;28;20046;-80
2023/01/05 04:50:22;;;;;;;24.50;4.35;;;;;;;8.42;100.00;101290.31;5010605;28;20069;-80
2023/01/05 04:52:50;;;;;;;30.92;4.35;;;;;;;8.42;100.00;101300.81;5008853;28;20042;-79
2023/01/05 04:55:19;;;;;;;23.17;4.15;;;;;;;8.39;100.00;101293.75;4963163;28;20120;-79
2023/01/05 04:57:47;;;;;;;18.48;4.25;;;;;;;8.40;100.00;101297.25;5009251;28;20057;-79
2023/01/05 05:00:17;;;;;;;25.75;4.60;;;;;;;8.39;100.00;101299.00;4999991;28;20057;-79
2023/01/05 05:02:46;;;;;;;20.98;5.03;;;;;;;8.40;100.00;101299.88;4991004;28;20061;-78
2023/01/05 05:05:15;;;;;;;19.45;3.67;;;;;;;8.40;100.00;101303.38;5001919;28;20054;-79
2023/01/05 05:07:42;;;;;;;21.98;3.92;;;;;;;8.41;100.00;101309.50;4990251;28;20054;-78
2023/01/05 05:10:11;;;;;;;20.65;4.32;;;;;;;8.44;100.00;101314.84;4990548;28;20053;-78
2023/01/05 05:12:41;;;;;;;23.97;4.77;;;;;;;8.44;100.00;101320.09;4981119;28;20093;-78
2023/01/05 05:15:10;;;;;;;27.02;4.47;;;;;;;8.46;100.00;101328.91;4999758;28;20058;-78
2023/01/05 05:17:42;;;;;;;31.15;4.95;;;;;;;8.45;100.00;101324.53;5001419;28;20385;-81
2023/01/05 05:20:12;;;;;;;27.65;5.50;;;;;;;8.44;100.00;101335.88;5006122;28;20049;-77
2023/01/05 05:22:40;;;;;;;20.38;3.72;;;;;;;8.40;100.00;101336.63;5000345;28;20396;-78
2023/01/05 05:25:10;;;;;;;20.45;4.15;;;;;;;8.38;100.00;101335.72;4974584;28;20073;-80
2023/01/05 05:27:42;;;;;;;33.75;5.22;;;;;;;8.38;100.00;101323.47;4997186;28;20046;-79
2023/01/05 05:30:10;;;;;;;30.58;6.63;;;;;;;8.37;100.00;101336.56;5004026;28;20049;-80
2023/01/05 05:32:37;;;;;;;30.63;5.28;;;;;;;8.36;100.00;101345.31;5001587;28;20061;-80
2023/01/05 05:35:10;;;;;;;23.27;4.57;;;;;;;8.33;100.00;101340.00;5007094;28;20042;-79
2023/01/05 05:37:38;;;;;;;22.20;4.63;;;;;;;8.33;100.00;101346.13;5009999;28;20850;-80
2023/01/05 05:40:06;;;;;;;26.70;4.95;;;;;;;8.34;100.00;101347.03;4998025;28;20041;-79
2023/01/05 05:42:33;;;;;;;28.70;5.00;;;;;;;8.36;100.00;101355.81;4970521;28;20053;-80
2023/01/05 05:45:00;;;;;;;19.52;4.43;;;;;;;8.37;100.00;101358.47;5008235;28;20058;-79
2023/01/05 05:47:28;;;;;;;22.73;4.55;;;;;;;8.38;100.00;101354.09;4993345;28;20108;-79
2023/01/05 05:49:55;;;;;;;24.63;4.50;;;;;;;8.38;100.00;101360.22;5003825;28;20054;-79
2023/01/05 05:52:22;;;;;;;26.83;4.35;;;;;;;8.38;100.00;101365.50;4992428;28;20045;-79
2023/01/05 05:54:50;;;;;;;22.40;4.35;;;;;;;8.39;100.00;101358.47;5014369;28;20057;-79
2023/01/05 05:57:17;;;;;;;27.13;4.90;;;;;;;8.40;100.00;101373.41;4954866;28;20050;-79
2023/01/05 05:59:44;;;;;;;22.05;4.90;;;;;;;8.41;100.00;101375.16;5008089;28;20041;-79
2023/01/05 06:02:12;;;;;;;30.83;5.63;;;;;;;8.40;100.00;101376.03;4987281;28;20053;-79
2023/01/05 06:04:39;;;;;;;22.15;4.40;;;;;;;8.40;100.00;101381.28;5007725;28;20060;-80
2023/01/05 06:07:07;;;;;;;28.30;5.30;;;;;;;8.39;100.00;101377.78;4990047;28;20050;-80
2023/01/05 06:09:34;;;;;;;28.15;5.55;;;;;;;8.40;100.00;101374.28;5007277;28;20058;-79
2023/01/05 06:12:02;;;;;;;25.55;4.72;;;;;;;8.42;100.00;101382.22;4973099;28;20045;-79
2023/01/05 06:14:31;;;;;;;36.55;6.15;;;;;;;8.42;100.00;101387.47;5018610;28;20511;-80
2023/01/05 06:16:59;;;;;;;22.20;4.88;;;;;;;8.39;100.00;101393.53;4996569;28;20488;-80
2023/01/05 06:19:27;;;;;;;25.75;4.70;;;;;;;8.40;100.00;101400.53;5000558;28;20057;-80
2023/01/05 06:21:54;;;;;;;22.70;4.32;;;;;;;8.41;100.00;101401.41;4998938;28;20058;-79
2023/01/05 06:24:22;;;;;;;31.05;4.85;;;;;;;8.42;100.00;101405.00;4996855;28;20038;-80
2023/01/05 06:26:50;;;;;;;24.95;4.60;;;;;;;8.42;100.00;101412.88;4986416;28;20054;-80
2023/01/05 06:29:17;;;;;;;23.77;4.18;;;;;;;8.39;100.00;101418.88;4971289;28;20060;-80
2023/01/05 06:31:45;;;;;;;19.70;4.28;;;;;;;8.40;100.00;101425.94;4979733;28;20061;-79
2023/01/05 06:34:12;;;;;;;28.42;5.15;;;;;;;8.41;100.00;101432.94;5002113;28;20038;-79
2023/01/05 06:36:40;;;;;;;26.38;4.75;;;;;;;8.40;100.00;101436.44;5004705;28;20057;-80
2023/01/05 06:39:07;;;;;;;31.63;5.35;;;;;;;8.42;100.00;101437.38;5020306;28;20045;-79
2023/01/05 06:41:34;;;;;;;23.20;4.55;;;;;;;8.39;100.00;101434.66;4986452;28;20046;-79
2023/01/05 06:44:02;;;;;;;28.85;4.40;;;;;;;8.39;100.00;101448.69;4968775;28;20104;-79
2023/01/05 06:46:29;;;;;;;20.27;4.63;;;;;;;8.38;100.00;101456.53;4999656;28;20038;-79
2023/01/05 06:48:57;;;;;;;35.47;5.90;;;;;;;8.38;100.00;101453.91;5008679;28;20106;-79
2023/01/05 06:51:25;;;;;;;28.38;4.85;;;;;;;8.38;100.00;101464.41;4995268;28;20053;-79
2023/01/05 06:53:52;;;;;;;22.23;4.38;;;;;;;8.38;100.00;101460.03;5015300;28;20519;-79
2023/01/05 06:56:19;;;;;;;24.38;4.25;;;;;;;8.38;100.00;101469.66;4990348;28;20407;-79
2023/01/05 06:58:46;;;;;;;22.52;4.10;;;;;;;8.38;100.00;101472.28;4971212;28;20042;-79
2023/01/05 07:01:14;;;;;;;25.92;4.00;;;;;;;8.35;100.00;101467.81;5002683;28;20050;-80
2023/01/05 07:03:41;;;;;;;31.90;4.50;;;;;;;8.34;100.00;101473.94;4995795;28;20038;-80
2023/01/05 07:06:13;;;;;;;36.72;5.47;;;;;;;8.33;100.00;101472.16;4979355;28;20050;-80
2023/01/05 07:08:41;;;;;;;27.83;4.43;;;;;;;8.30;100.00;101473.81;5000442;28;20046;-80
2023/01/05 07:11:09;;;;;;;32.15;4.43;;;;;;;8.29;100.00;101480.81;4987436;28;20046;-80
2023/01/05 07:13:36;;;;;;;30.20;5.47;;;;;;;8.27;100.00;101482.53;4980602;28;20046;-79
2023/01/05 07:16:04;;;;;;;21.10;5.07;;;;;;;8.25;100.00;101483.38;4975187;28;20046;-79
2023/01/05 07:18:31;;;;;;;31.90;6.40;;;;;;;8.24;100.00;101489.44;4990404;28;20037;-80
2023/01/05 07:20:59;;;;;;;25.52;6.47;;;;;;;8.22;100.00;101488.53;4991689;28;20057;-79
2023/01/05 07:23:27;;;;;;;25.83;4.43;;;;;;;8.20;100.00;101496.38;5012299;28;20038;-79
2023/01/05 07:26:00;;;;;;;18.65;4.70;;;;;;;8.16;100.00;101491.91;5007436;28;20057;-79
2023/01/05 07:28:27;;;;;;;24.52;5.43;;;;;;;8.12;100.00;101498.81;4988933;28;20073;-79
2023/01/05 07:30:54;;;;;;;19.17;4.07;;;;;;;8.09;100.00;101498.75;4952593;28;20050;-79
2023/01/05 07:33:22;;;;;;;26.25;4.20;;;;;;;8.05;100.00;101502.13;4987627;28;20455;-79
2023/01/05 07:35:49;;;;;;;23.92;3.78;;;;;;;8.04;100.00;101505.63;4983301;28;20045;-78
2023/01/05 07:38:17;;;;;;;30.92;4.80;;;;;;;8.02;100.00;101501.22;5026171;28;20041;-79
2023/01/05 07:40:44;;;;;;;22.73;4.40;;;;;;;8.00;100.00;101506.41;4998831;28;20042;-79
2023/01/05 07:43:11;;;;;;;24.95;4.10;;;;;;;7.98;100.00;101514.25;4990905;28;20491;-79
2023/01/05 07:45:39;;;;;;;24.35;4.38;;;;;;;7.98;100.00;101510.75;4948717;28;20061;-79
2023/01/05 07:48:07;;;;;;;25.38;4.50;;;;;;;7.98;100.00;101516.00;4972279;28;20807;-79
2023/01/05 07:50:34;;;;;;;22.08;4.32;;;;;;;7.95;100.00;101516.78;4994242;28;20053;-78
2023/01/05 07:53:01;;;;;;;20.08;4.25;;;;;;;7.94;100.00;101529.84;4975391;28;20050;-80
2023/01/05 07:55:29;;;;;;;16.00;3.75;;;;;;;7.89;100.00;101542.88;5021582;28;20050;-79
2023/01/05 07:57:56;;;;;;;15.88;3.72;;;;;;;7.84;100.00;101543.59;4995269;28;20065;-78
2023/01/05 08:00:24;;;;;;;20.95;3.30;;;;;;;7.79;100.00;101557.50;4950731;28;20041;-79
2023/01/05 08:02:52;;;;;;;11.40;2.67;;;;;;;7.73;100.00;101561.69;5012255;28;20411;-78
2023/01/05 08:05:19;;;;;;;8.48;2.30;;;;;;;7.69;100.00;101563.34;4967103;28;20042;-79
2023/01/05 08:07:46;;;;;;;12.13;2.88;;;;;;;7.69;100.00;101575.59;4995214;28;20050;-78
2023/01/05 08:10:29;;;;;;;9.52;2.00;;;;;;;7.64;100.00;101580.72;4998674;28;20057;-79
2023/01/05 08:15:47;;;;;;;2.38;0.90;;;;;;;7.56;100.00;101579.59;4986126;28;20045;-78
2023/01/05 08:18:18;;;;;;;;;;;;;;;7.56;100.00;101587.47;4996581;28;20043;-79
2023/01/05 08:20:56;;;;;;;5.97;1.05;;;;;;;7.54;100.00;101591.78;4992304;28;19921;-79
2023/01/05 08:23:25;;;;;;;6.32;1.13;;;;;;;7.58;100.00;101604.13;4973014;28;20034;-79
2023/01/05 08:25:54;;;;;;;4.32;0.90;;;;;;;7.60;100.00;101591.97;4970276;28;20058;-80
2023/01/05 08:28:24;;;;;;;10.45;1.35;;;;;;;7.60;100.00;101591.97;4988687;28;20042;-78
2023/01/05 08:31:06;;;;;;;5.30;1.85;;;;;;;7.62;100.00;101606.03;5008930;28;20515;-78
2023/01/05 08:33:33;;;;;;;8.85;1.95;;;;;;;7.61;100.00;101597.25;4973133;28;20038;-79
2023/01/05 08:36:05;;;;;;;6.32;1.50;;;;;;;7.61;100.00;101607.72;4987450;28;20054;-79
2023/01/05 08:38:33;;;;;;;8.63;1.50;;;;;;;7.61;100.00;101617.34;4978019;28;20064;-79
2023/01/05 08:41:00;;;;;;;7.90;1.85;;;;;;;7.60;100.00;101620.84;4987079;28;20049;-79
2023/01/05 08:43:28;;;;;;;10.13;2.00;;;;;;;7.57;100.00;101624.25;4983990;28;20053;-79
2023/01/05 08:45:55;;;;;;;8.90;2.13;;;;;;;7.55;100.00;101620.69;4991974;28;20090;-78
2023/01/05 08:48:23;;;;;;;9.48;2.28;;;;;;;7.54;100.00;101621.56;4950242;28;20049;-79
2023/01/05 08:50:50;;;;;;;12.52;2.30;;;;;;;7.53;100.00;101619.75;4961679;28;20057;-78
2023/01/05 08:53:17;;;;;;;17.70;2.63;;;;;;;7.52;100.00;101632.81;4942525;28;20050;-78
2023/01/05 08:55:45;;;;;;;15.70;2.72;;;;;;;7.51;100.00;101631.94;4976786;28;20106;-78
2023/01/05 08:58:12;;;;;;;5.72;2.25;;;;;;;7.53;100.00;101642.47;4982314;28;20057;-79
2023/01/05 09:00:39;;;;;;;6.82;1.75;;;;;;;7.54;100.00;101653.03;4990125;28;20069;-79
2023/01/05 09:03:08;;;;;;;9.98;2.17;;;;;;;7.56;100.00;101664.44;4952790;28;20079;-79
2023/01/05 09:05:35;;;;;;;12.82;2.58;;;;;;;7.60;100.00;101665.44;4979689;28;20049;-78
2023/01/05 09:08:03;;;;;;;9.13;1.92;;;;;;;7.63;100.00;101673.34;4993162;28;20046;-79
2023/01/05 09:10:31;;;;;;;11.38;2.15;;;;;;;7.65;100.00;101674.28;5005712;28;20038;-81
2023/01/05 09:12:59;;;;;;;24.45;3.10;;;;;;;7.66;100.00;101683.97;5004137;28;20511;-81
2023/01/05 09:15:26;;;;;;;18.92;4.15;;;;;;;7.70;100.00;101688.44;5022735;28;20061;-81
2023/01/05 09:17:53;;;;;;;23.67;3.00;;;;;;;7.74;100.00;101700.78;5001364;28;20046;-80
2023/01/05 09:20:20;;;;;;;20.38;2.92;;;;;;;7.80;100.00;101693.09;4974085;28;20415;-81
2023/01/05 09:22:48;;;;;;;19.98;2.88;;;;;;;7.88;100.00;101697.66;4994340;28;20057;-80
2023/01/05 09:25:15;;;;;;;22.20;3.85;;;;;;;7.94;100.00;101703.06;4980113;28;20066;-80
2023/01/05 09:27:42;;;;;;;28.30;4.63;;;;;;;7.96;100.00;101706.66;5018953;28;20053;-80
2023/01/05 09:30:11;;;;;;;24.95;3.60;;;;;;;8.00;100.00;101704.16;5006420;28;20041;-79
2023/01/05 09:32:38;;;;;;;23.60;4.45;;;;;;;8.04;100.00;101712.13;5012394;28;20509;-79
2023/01/05 09:35:08;;;;;;;16.40;3.35;;;;;;;8.09;100.00;101723.59;4974430;28;20053;-80
2023/01/05 09:37:35;;;;;;;17.73;3.20;;;;;;;8.11;100.00;101717.56;4997033;28;20049;-80
2023/01/05 09:40:03;;;;;;;18.73;3.38;;;;;;;8.14;100.00;101729.88;4977180;28;20045;-78
2023/01/05 09:42:32;;;;;;;24.35;3.10;;;;;;;8.16;100.00;101736.94;5005864;28;20049;-80
2023/01/05 09:45:04;;;;;;;19.08;3.72;;;;;;;8.19;100.00;101736.16;5005847;28;20050;-81
2023/01/05 09:47:38;;;;;;;14.75;2.75;;;;;;;8.20;100.00;101741.47;5010023;28;20061;-80
2023/01/05 09:50:15;;;;;;;19.55;2.70;;;;;;;8.24;100.00;101733.66;4967737;28;20696;-80
2023/01/05 09:52:43;;;;;;;18.80;3.30;;;;;;;8.30;100.00;101728.53;4999338;28;20431;-79
2023/01/05 09:55:16;;;;;;;15.52;3.17;;;;;;;8.34;100.00;101751.44;4992551;28;20792;-80
2023/01/05 09:58:00;;;;;;;19.23;3.50;;;;;;;8.39;100.00;101741.94;5004998;28;20572;-80
2023/01/05 10:00:28;;;;;;;10.13;2.47;;;;;;;8.44;100.00;101755.22;4986280;28;20565;-80
2023/01/05 10:03:14;;;;;;;14.77;3.10;;;;;;;8.45;100.00;101754.38;4989043;28;20435;-80
2023/01/05 10:06:02;;;;;;;9.60;2.10;;;;;;;8.44;100.00;101758.75;4972556;28;20125;-79
2023/01/05 10:08:39;;;;;;;15.18;2.67;;;;;;;8.44;100.00;101760.47;4994789;28;20912;-79
2023/01/05 10:14:12;;;;;;;13.77;2.53;;;;;;;8.38;100.00;101753.28;5004932;28;20041;-79
2023/01/05 10:16:43;;;;;;;12.77;2.47;;;;;;;8.38;100.00;101762.06;4996765;28;20057;-79
2023/01/05 10:19:17;;;;;;;8.88;2.28;;;;;;;8.40;100.00;101759.47;4996261;28;20042;-79
2023/01/05 10:22:07;;;;;;;10.75;2.28;;;;;;;8.43;100.00;101763.94;4967556;28;20965;-79
2023/01/05 10:24:58;;;;;;;10.50;2.30;;;;;;;8.46;100.00;101770.16;4981456;28;20340;-79
2023/01/05 10:27:43;;;;;;;10.40;2.20;;;;;;;8.46;100.00;101770.16;4998504;28;20142;-80
2023/01/05 10:30:26;;;;;;;9.02;2.25;;;;;;;8.48;100.00;101775.47;5018985;28;20345;-79
2023/01/05 10:33:10;;;;;;;10.65;1.80;;;;;;;8.44;100.00;101774.50;4992976;28;20054;-79
2023/01/05 10:36:09;;;;;;;10.75;1.80;;;;;;;8.45;100.00;101776.28;4994139;28;20057;-79
2023/01/05 10:39:19;;;;;;;10.90;2.10;;;;;;;8.49;100.00;101782.53;5018705;28;20065;-79
2023/01/05 10:41:46;;;;;;;12.15;1.95;;;;;;;8.52;100.00;101780.84;4995261;28;20117;-79
2023/01/05 10:44:26;;;;;;;14.60;2.72;;;;;;;8.56;100.00;101776.56;4999051;28;20515;-78
2023/01/05 10:46:53;;;;;;;10.75;2.58;;;;;;;8.61;100.00;101771.44;5012962;28;20046;-79
2023/01/05 10:49:27;;;;;;;11.77;2.15;;;;;;;8.61;100.00;101776.69;4992799;28;20046;-79
2023/01/05 10:51:59;;;;;;;16.27;2.40;;;;;;;8.63;100.00;101780.25;4965989;28;20050;-79
2023/01/05 10:54:48;;;;;;;12.63;2.58;;;;;;;8.65;100.00;101783.81;5007499;28;20054;-79
2023/01/05 10:57:31;;;;;;;8.73;2.05;;;;;;;8.67;100.00;101792.59;5007560;28;20049;-79
2023/01/05 11:00:08;;;;;;;10.98;2.38;;;;;;;8.70;100.00;101792.69;5019741;28;20050;-79
2023/01/05 11:02:40;;;;;;;11.75;1.88;;;;;;;8.71;100.00;101794.47;4989078;28;20046;-79
2023/01/05 11:05:10;;;;;;;6.60;1.85;;;;;;;8.71;100.00;101792.72;5003694;28;20046;-79
2023/01/05 11:07:49;;;;;;;7.18;1.90;;;;;;;8.69;100.00;101801.41;4966032;28;20065;-79
2023/01/05 11:10:24;;;;;;;13.13;1.85;;;;;;;8.71;100.00;101792.72;4995833;28;20054;-79
2023/01/05 11:13:15;;;;;;;11.43;2.33;;;;;;;8.75;100.00;101797.22;5004772;28;20045;-79
2023/01/05 11:15:55;;;;;;;12.95;2.03;;;;;;;8.75;100.00;101796.31;5002468;28;20062;-79
2023/01/05 11:18:30;;;;;;;8.40;2.20;;;;;;;8.71;100.00;101795.34;5004633;28;20045;-79
2023/01/05 11:21:12;;;;;;;8.20;2.08;;;;;;;8.69;100.00;101801.41;4993706;28;20053;-79
2023/01/05 11:23:49;;;;;;;20.75;2.33;;;;;;;8.67;100.00;101797.88;4968060;28;20038;-79
2023/01/05 11:26:20;;;;;;;12.95;2.15;;;;;;;8.67;100.00;101797.88;4994112;28;20045;-79
2023/01/05 11:28:58;;;;;;;9.20;2.22;;;;;;;8.71;100.00;101791.84;5000590;28;20049;-78
2023/01/05 11:31:35;;;;;;;7.70;2.28;;;;;;;8.72;100.00;101797.13;5005110;28;20392;-79
2023/01/05 11:34:20;;;;;;;9.43;1.73;;;;;;;8.75;100.00;101807.75;5001861;28;20061;-78
2023/01/05 11:36:54;;;;;;;10.40;2.10;;;;;;;8.77;100.00;101797.25;4994726;28;20042;-79
2023/01/05 11:39:28;;;;;;;4.68;1.63;;;;;;;8.80;100.00;101797.31;4987692;28;20046;-79
2023/01/05 11:42:11;;;;;;;11.35;2.38;;;;;;;8.84;100.00;101804.44;5017248;28;20058;-80
2023/01/05 11:44:42;;;;;;;10.68;1.80;;;;;;;8.88;100.00;101801.03;5000219;28;20042;-79
2023/01/05 11:47:20;;;;;;;10.90;2.10;;;;;;;8.92;100.00;101795.03;4991948;28;20058;-79
2023/01/05 11:49:56;;;;;;;9.85;2.22;;;;;;;8.95;100.00;101797.72;5000676;28;20054;-79
2023/01/05 11:52:37;;;;;;;11.38;2.97;;;;;;;8.98;100.00;101803.06;4997708;28;20061;-79
2023/01/05 11:55:20;;;;;;;10.07;2.17;;;;;;;8.98;100.00;101803.06;4965430;28;20034;-79
2023/01/05 11:57:49;;;;;;;8.73;2.08;;;;;;;9.00;100.00;101807.44;4987353;28;20049;-80
2023/01/05 12:00:25;;;;;;;14.77;2.33;;;;;;;8.98;100.00;101818.84;5002465;28;20049;-79
2023/01/05 12:03:25;;;;;;;10.65;2.55;;;;;;;8.98;100.00;101812.69;4992174;28;20042;-79
2023/01/05 12:05:56;;;;;;;9.23;1.80;;;;;;;8.92;100.00;101818.69;4999228;28;20054;-79
2023/01/05 12:08:33;;;;;;;14.80;2.55;;;;;;;8.92;100.00;101817.78;5009504;28;20054;-79
2023/01/05 12:11:18;;;;;;;13.90;2.17;;;;;;;8.89;100.00;101821.22;4972243;28;20069;-79
2023/01/05 12:14:50;;;;;;;10.65;2.30;;;;;;;8.88;100.00;101815.91;4994427;28;20050;-79
2023/01/05 12:17:27;;;;;;;20.05;2.65;;;;;;;8.86;100.00;101818.50;4908670;29;20055;-79